Time;durP1;ratioP1;P1;durP2;ratioP2;P2;SDS_P1;SDS_P2;PMS_P1;PMS_P2;Temp;Humidity;BMP_temperature;BMP_pressure;BME280_temperature;BME280_humidity;BME280_pressure;Samples;Min_cycle;Max_cycle;Signal;HPM_P1;HPM_P2
2023/08/24 00:01:16;;;;;;;3.33;1.20;;;41.60;40.20;;;;;;5048639;28;20097;-59
2023/08/24 00:03:48;;;;;;;4.85;1.38;;;41.50;40.10;;;;;;5050394;28;20387;-59
2023/08/24 00:06:15;;;;;;;5.40;1.27;;;41.30;40.20;;;;;;5056130;28;20033;-63
2023/08/24 00:08:41;;;;;;;11.98;1.80;;;41.30;41.20;;;;;;5049276;28;20036;-60
2023/08/24 00:11:08;;;;;;;5.65;1.30;;;41.10;39.30;;;;;;5048025;28;20071;-60
2023/08/24 00:13:34;;;;;;;5.75;1.50;;;41.10;39.80;;;;;;5049605;28;20029;-59
2023/08/24 00:16:01;;;;;;;4.07;1.48;;;41.00;40.60;;;;;;5051277;28;20674;-58
2023/08/24 00:18:27;;;;;;;5.32;1.60;;;40.90;39.80;;;;;;5050303;28;20040;-60
2023/08/24 00:20:54;;;;;;;2.80;1.38;;;40.90;40.60;;;;;;5051660;28;20021;-59
2023/08/24 00:23:20;;;;;;;7.72;1.60;;;40.80;40.10;;;;;;5049632;28;20019;-59
2023/08/24 00:25:46;;;;;;;7.80;1.50;;;40.80;40.50;;;;;;5052315;28;20021;-60
2023/08/24 00:28:13;;;;;;;6.57;1.65;;;40.70;40.00;;;;;;5047836;28;20013;-60
2023/08/24 00:30:39;;;;;;;8.20;1.60;;;40.60;39.40;;;;;;5058561;28;21085;-59
2023/08/24 00:33:06;;;;;;;8.63;1.20;;;40.50;39.60;;;;;;5046993;28;20017;-58
2023/08/24 00:35:32;;;;;;;5.07;1.50;;;40.50;39.40;;;;;;5047414;28;20025;-60
2023/08/24 00:37:59;;;;;;;5.57;1.52;;;40.40;40.10;;;;;;5050297;28;20021;-61
2023/08/24 00:40:26;;;;;;;5.97;1.77;;;40.30;39.00;;;;;;5051748;28;20506;-59
2023/08/24 00:42:52;;;;;;;6.47;1.30;;;40.20;40.90;;;;;;5053160;28;20060;-61
2023/08/24 00:45:19;;;;;;;3.70;1.23;;;40.10;41.10;;;;;;5046661;28;20020;-59
2023/08/24 00:47:48;;;;;;;5.13;1.38;;;40.00;39.90;;;;;;5050449;28;20056;-59
2023/08/24 00:50:16;;;;;;;5.90;1.25;;;40.00;40.90;;;;;;5049955;28;20099;-59
2023/08/24 00:52:44;;;;;;;4.97;1.20;;;39.90;41.00;;;;;;5046805;28;20384;-61
2023/08/24 00:55:10;;;;;;;4.38;1.10;;;39.80;41.20;;;;;;5049292;28;20025;-60
2023/08/24 00:57:40;;;;;;;6.47;1.08;;;39.80;40.30;;;;;;5049364;28;20021;-59
2023/08/24 01:00:10;;;;;;;4.85;1.35;;;39.70;40.50;;;;;;5048454;28;20019;-60
2023/08/24 01:02:38;;;;;;;6.55;1.25;;;39.70;41.40;;;;;;5050665;28;20021;-61
2023/08/24 01:05:05;;;;;;;7.80;1.30;;;39.60;41.00;;;;;;5045018;28;20067;-62
2023/08/24 01:07:36;;;;;;;27.23;3.10;;;39.60;41.00;;;;;;5045175;28;20009;-61
2023/08/24 01:10:04;;;;;;;26.27;7.50;;;39.50;41.00;;;;;;5052256;28;20093;-63
2023/08/24 01:13:08;;;;;;;25.10;8.32;;;39.40;42.00;;;;;;5048435;28;20009;-64
2023/08/24 01:16:16;;;;;;;51.15;9.82;;;39.40;41.40;;;;;;5043875;28;20032;-61
2023/08/24 01:18:43;;;;;;;23.23;10.38;;;39.30;41.90;;;;;;5016628;28;20026;-64
2023/08/24 01:21:10;;;;;;;82.28;29.38;;;39.10;40.70;;;;;;5017840;28;20021;-61
2023/08/24 01:23:52;;;;;;;25.20;11.48;;;39.10;41.40;;;;;;5008777;28;20060;-61
2023/08/24 01:26:20;;;;;;;13.27;6.97;;;39.00;41.10;;;;;;5020863;28;20017;-59
2023/08/24 01:28:47;;;;;;;10.38;8.38;;;39.00;41.10;;;;;;5016191;28;20521;-62
2023/08/24 01:31:18;;;;;;;10.35;7.55;;;38.90;41.30;;;;;;5008314;28;20041;-62
2023/08/24 01:33:46;;;;;;;4.93;1.42;;;38.90;41.50;;;;;;5008966;28;20038;-61
2023/08/24 01:36:16;;;;;;;9.55;1.40;;;38.80;41.70;;;;;;5011729;28;20177;-60
2023/08/24 01:38:45;;;;;;;7.22;1.38;;;38.70;41.80;;;;;;5011365;28;20056;-60
2023/08/24 01:41:28;;;;;;;4.45;1.30;;;38.60;41.90;;;;;;5014830;28;20089;-60
2023/08/24 01:43:57;;;;;;;6.30;1.20;;;38.50;42.50;;;;;;5010388;28;20038;-60
2023/08/24 01:46:25;;;;;;;7.68;1.85;;;38.40;41.90;;;;;;5009709;28;20531;-59
2023/08/24 01:48:53;;;;;;;3.30;0.95;;;38.40;41.60;;;;;;5024685;28;20035;-56
2023/08/24 01:51:20;;;;;;;4.95;1.10;;;38.30;41.70;;;;;;5046953;28;20021;-59
2023/08/24 01:53:47;;;;;;;6.30;1.35;;;38.20;41.20;;;;;;5047484;28;20016;-59
2023/08/24 01:56:16;;;;;;;6.72;1.20;;;38.20;41.60;;;;;;5053614;28;20021;-57
2023/08/24 01:58:42;;;;;;;2.83;1.10;;;38.10;42.20;;;;;;5057221;28;20019;-61
2023/08/24 02:01:10;;;;;;;8.32;1.50;;;38.10;42.30;;;;;;5051815;28;20095;-61
2023/08/24 02:03:38;;;;;;;4.80;1.10;;;37.90;42.00;;;;;;5049610;28;20048;-60
2023/08/24 02:06:06;;;;;;;2.55;1.20;;;37.90;42.60;;;;;;5056816;28;20017;-57
2023/08/24 02:08:33;;;;;;;5.72;1.40;;;37.80;42.30;;;;;;5055335;28;20021;-60
2023/08/24 02:10:59;;;;;;;6.82;1.30;;;37.70;43.40;;;;;;5051028;28;20032;-61
2023/08/24 02:13:26;;;;;;;10.45;1.92;;;37.60;43.00;;;;;;5051806;28;20040;-58
2023/08/24 02:16:02;;;;;;;9.27;1.77;;;37.60;43.20;;;;;;5049206;28;20504;-61
2023/08/24 02:18:28;;;;;;;;;;;37.40;44.00;;;;;;5047583;28;20025;-59
2023/08/24 02:20:55;;;;;;;5.40;1.40;;;37.40;43.90;;;;;;5052182;28;19909;-58
2023/08/24 02:23:21;;;;;;;5.30;1.40;;;37.30;43.40;;;;;;5048638;28;20066;-59
2023/08/24 02:25:49;;;;;;;4.43;1.15;;;37.20;43.70;;;;;;5055279;28;20686;-59
2023/08/24 02:28:15;;;;;;;6.00;1.50;;;37.10;43.30;;;;;;5052397;28;20020;-61
2023/08/24 02:30:42;;;;;;;5.75;1.35;;;37.00;43.50;;;;;;5052210;28;20025;-57
2023/08/24 02:33:08;;;;;;;1.55;1.13;;;36.90;44.40;;;;;;5046875;28;20025;-59
2023/08/24 02:35:34;;;;;;;9.98;1.23;;;36.80;44.30;;;;;;5044404;28;20116;-62
2023/08/24 02:38:01;;;;;;;6.30;1.40;;;36.80;44.40;;;;;;5047833;28;20401;-58
2023/08/24 02:40:27;;;;;;;3.88;1.60;;;36.60;44.80;;;;;;5049034;28;20024;-59
2023/08/24 02:42:54;;;;;;;15.43;10.38;;;36.60;44.80;;;;;;5046140;28;20465;-60
2023/08/24 02:45:20;;;;;;;4.68;1.45;;;36.50;44.60;;;;;;5048774;28;20032;-58
2023/08/24 02:47:46;;;;;;;7.88;1.77;;;36.50;45.00;;;;;;5049261;28;20067;-56
2023/08/24 02:50:13;;;;;;;7.10;1.55;;;36.40;45.10;;;;;;5044977;28;20083;-60
2023/08/24 02:52:39;;;;;;;8.27;1.90;;;36.30;44.60;;;;;;5046340;28;20025;-60
2023/08/24 02:55:06;;;;;;;5.05;1.55;;;36.30;45.30;;;;;;5046688;28;20029;-59
2023/08/24 02:57:35;;;;;;;9.57;2.00;;;36.20;45.70;;;;;;5048526;28;20017;-62
2023/08/24 03:00:03;;;;;;;4.85;2.05;;;36.20;45.00;;;;;;5050280;28;20015;-59
2023/08/24 03:02:29;;;;;;;12.40;2.72;;;36.10;45.10;;;;;;5055548;28;20226;-59
2023/08/24 03:04:56;;;;;;;8.32;2.70;;;36.10;45.30;;;;;;5052402;28;20395;-60
2023/08/24 03:07:24;;;;;;;7.38;2.47;;;36.00;45.40;;;;;;5054435;28;20056;-61
2023/08/24 03:09:50;;;;;;;11.27;2.72;;;35.90;45.50;;;;;;5050035;28;20021;-59
2023/08/24 03:12:17;;;;;;;13.02;2.85;;;35.80;45.30;;;;;;5055581;28;20032;-61
2023/08/24 03:14:43;;;;;;;8.20;2.80;;;35.70;45.30;;;;;;5051754;28;20075;-60
2023/08/24 03:17:09;;;;;;;7.68;2.85;;;35.60;45.70;;;;;;5051488;28;20074;-59
2023/08/24 03:19:36;;;;;;;10.45;3.17;;;35.60;46.40;;;;;;5056333;28;20028;-60
2023/08/24 03:22:02;;;;;;;7.75;2.70;;;35.50;46.20;;;;;;5050268;28;20101;-59
2023/08/24 03:24:28;;;;;;;8.52;2.45;;;35.50;46.70;;;;;;5049172;28;20013;-61
2023/08/24 03:26:55;;;;;;;8.02;2.10;;;35.40;46.10;;;;;;5049793;28;20096;-59
2023/08/24 03:29:22;;;;;;;9.75;2.47;;;35.20;45.80;;;;;;5046408;28;20025;-59
2023/08/24 03:31:48;;;;;;;9.38;2.00;;;35.20;45.90;;;;;;5046307;28;20005;-60
2023/08/24 03:34:15;;;;;;;10.10;2.22;;;35.10;46.30;;;;;;5048253;28;20099;-60
2023/08/24 03:36:41;;;;;;;14.13;2.45;;;35.10;46.20;;;;;;5052249;28;20029;-60
2023/08/24 03:39:08;;;;;;;11.68;2.55;;;35.00;46.40;;;;;;5050656;28;21691;-61
2023/08/24 03:41:34;;;;;;;18.08;2.38;;;35.00;47.40;;;;;;5056388;28;20047;-60
2023/08/24 03:44:01;;;;;;;13.27;2.63;;;34.90;47.70;;;;;;5049187;28;20025;-56
2023/08/24 03:46:27;;;;;;;9.68;2.65;;;34.90;48.30;;;;;;5049397;28;20373;-59
2023/08/24 03:48:53;;;;;;;11.48;3.15;;;34.80;48.10;;;;;;5048281;28;20071;-58
2023/08/24 03:51:20;;;;;;;11.88;3.28;;;34.70;48.60;;;;;;5053177;28;20083;-56
2023/08/24 03:53:46;;;;;;;21.52;3.25;;;34.70;49.10;;;;;;5048349;28;20491;-56
2023/08/24 03:56:13;;;;;;;20.67;3.55;;;34.60;50.10;;;;;;5048348;28;20025;-57
2023/08/24 03:58:39;;;;;;;15.45;3.00;;;34.50;51.00;;;;;;5048499;28;20024;-55
2023/08/24 04:01:10;;;;;;;19.60;4.05;;;34.50;52.00;;;;;;5048356;28;20037;-56
2023/08/24 04:03:36;;;;;;;18.52;4.03;;;34.40;50.70;;;;;;5047816;28;20017;-58
2023/08/24 04:06:03;;;;;;;12.45;3.13;;;34.30;50.50;;;;;;5049895;28;20021;-55
2023/08/24 04:08:29;;;;;;;18.70;3.45;;;34.30;51.60;;;;;;5048706;28;20040;-57
2023/08/24 04:10:56;;;;;;;17.10;3.40;;;34.30;51.30;;;;;;5047187;28;20019;-57
2023/08/24 04:13:22;;;;;;;18.75;3.70;;;34.20;51.40;;;;;;5047157;28;20101;-60
2023/08/24 04:15:49;;;;;;;18.17;3.88;;;34.10;51.30;;;;;;5052313;28;20043;-59
2023/08/24 04:18:15;;;;;;;14.50;4.03;;;34.10;51.60;;;;;;5048465;28;20025;-59
2023/08/24 04:20:41;;;;;;;23.25;5.00;;;34.10;52.20;;;;;;5050666;28;20491;-57
2023/08/24 04:23:10;;;;;;;23.83;4.82;;;34.00;53.00;;;;;;5048118;28;20025;-59
2023/08/24 04:25:40;;;;;;;27.77;4.28;;;34.00;50.40;;;;;;5047818;28;20550;-59
2023/08/24 04:28:06;;;;;;;17.85;4.35;;;34.10;48.70;;;;;;5047755;28;20469;-59
2023/08/24 04:30:33;;;;;;;17.20;4.40;;;34.00;48.50;;;;;;5049199;28;20029;-59
2023/08/24 04:32:59;;;;;;;21.73;3.60;;;34.00;48.60;;;;;;5047706;28;20106;-57
2023/08/24 04:35:26;;;;;;;17.77;4.40;;;34.10;47.80;;;;;;5048220;28;20619;-58
2023/08/24 04:37:53;;;;;;;25.90;4.50;;;34.10;48.60;;;;;;5047788;28;20043;-60
2023/08/24 04:40:20;;;;;;;22.13;4.53;;;34.10;48.50;;;;;;5048565;28;20064;-56
2023/08/24 04:42:46;;;;;;;18.75;3.70;;;34.00;48.60;;;;;;5047665;28;20421;-56
2023/08/24 04:45:14;;;;;;;15.63;3.90;;;34.10;49.00;;;;;;5047800;28;20023;-57
2023/08/24 04:47:40;;;;;;;15.25;4.03;;;34.00;50.00;;;;;;5047488;28;20431;-57
2023/08/24 04:50:07;;;;;;;16.55;3.20;;;34.00;50.50;;;;;;5047725;28;20112;-57
2023/08/24 04:52:34;;;;;;;17.02;2.63;;;34.00;50.50;;;;;;5053933;28;20013;-56
2023/08/24 04:55:01;;;;;;;11.93;2.92;;;34.00;50.70;;;;;;5052105;28;20029;-57
2023/08/24 04:57:27;;;;;;;16.23;3.50;;;33.90;50.40;;;;;;5047199;28;20009;-56
2023/08/24 04:59:54;;;;;;;21.90;3.55;;;33.90;53.00;;;;;;5047215;28;20432;-55
2023/08/24 05:02:20;;;;;;;20.85;3.75;;;33.80;52.10;;;;;;5047180;28;20071;-59
2023/08/24 05:04:48;;;;;;;21.20;3.95;;;33.80;51.30;;;;;;5047107;28;20013;-55
2023/08/24 05:07:14;;;;;;;29.02;4.40;;;33.80;51.10;;;;;;5047895;28;20389;-57
2023/08/24 05:09:41;;;;;;;20.90;4.40;;;33.80;51.90;;;;;;5047156;28;20449;-56
2023/08/24 05:12:07;;;;;;;17.88;4.63;;;33.70;51.80;;;;;;5047108;28;20013;-61
2023/08/24 05:14:34;;;;;;;16.55;4.35;;;33.70;52.70;;;;;;5047044;28;20099;-54
2023/08/24 05:17:00;;;;;;;13.88;4.53;;;33.60;55.30;;;;;;5048036;28;20376;-57
2023/08/24 05:19:27;;;;;;;20.55;4.53;;;33.50;53.70;;;;;;5048400;28;20010;-58
2023/08/24 05:21:53;;;;;;;20.15;4.55;;;33.40;54.90;;;;;;5048328;28;20013;-56
2023/08/24 05:24:20;;;;;;;25.88;4.68;;;33.30;55.20;;;;;;5044973;28;20039;-53
2023/08/24 05:26:46;;;;;;;30.27;4.50;;;33.30;54.30;;;;;;5051005;28;20013;-58
2023/08/24 05:29:12;;;;;;;17.27;4.70;;;33.30;54.40;;;;;;5048453;28;20518;-59
2023/08/24 05:31:39;;;;;;;20.92;4.80;;;33.20;54.50;;;;;;5049111;28;20021;-56
2023/08/24 05:34:05;;;;;;;25.50;4.05;;;33.10;54.30;;;;;;5047521;28;20045;-54
2023/08/24 05:36:32;;;;;;;16.65;4.43;;;33.10;54.30;;;;;;5043947;28;20028;-55
2023/08/24 05:38:58;;;;;;;24.35;5.30;;;33.10;56.00;;;;;;5044520;28;20056;-56
2023/08/24 05:41:24;;;;;;;15.95;4.47;;;33.00;55.40;;;;;;5047694;28;20021;-56
2023/08/24 05:43:52;;;;;;;17.05;4.70;;;33.00;54.40;;;;;;5044351;28;20024;-57
2023/08/24 05:46:19;;;;;;;15.18;4.55;;;33.00;56.00;;;;;;5042546;28;20388;-57
2023/08/24 05:48:45;;;;;;;15.95;4.35;;;33.00;56.50;;;;;;5046766;28;20013;-58
2023/08/24 05:51:12;;;;;;;20.48;5.20;;;33.00;56.60;;;;;;5042880;28;20018;-57
2023/08/24 05:53:40;;;;;;;18.40;5.38;;;33.00;56.70;;;;;;5042453;28;20033;-56
2023/08/24 05:56:07;;;;;;;21.27;5.50;;;32.90;57.00;;;;;;5049902;28;20040;-59
2023/08/24 05:58:33;;;;;;;106.75;9.05;;;32.90;58.70;;;;;;5046094;28;20091;-61
2023/08/24 06:01:00;;;;;;;42.83;7.22;;;32.90;59.00;;;;;;5047956;28;20448;-62
2023/08/24 06:03:26;;;;;;;34.17;7.30;;;32.90;59.00;;;;;;5044854;28;20013;-62
2023/08/24 06:05:53;;;;;;;61.28;8.18;;;32.80;59.10;;;;;;5045691;28;20021;-58
2023/08/24 06:08:19;;;;;;;29.08;5.95;;;32.80;59.80;;;;;;5047074;28;20101;-55
2023/08/24 06:10:46;;;;;;;23.42;5.57;;;32.70;59.90;;;;;;5048454;28;20024;-55
2023/08/24 06:13:12;;;;;;;14.45;4.45;;;32.70;60.80;;;;;;5049221;28;20241;-57
2023/08/24 06:15:39;;;;;;;14.27;4.18;;;32.70;60.60;;;;;;5049726;28;20032;-60
2023/08/24 06:18:05;;;;;;;11.38;4.05;;;32.70;61.90;;;;;;5046586;28;20141;-59
2023/08/24 06:20:32;;;;;;;15.90;4.15;;;32.70;61.70;;;;;;5050751;28;20035;-61
2023/08/24 06:22:59;;;;;;;21.38;4.60;;;32.80;62.00;;;;;;5052311;28;20009;-58
2023/08/24 06:25:25;;;;;;;14.35;5.00;;;32.80;61.50;;;;;;5050597;28;20050;-56
2023/08/24 06:27:52;;;;;;;13.15;4.45;;;32.80;60.80;;;;;;5047670;28;20357;-59
2023/08/24 06:30:18;;;;;;;14.25;4.05;;;32.80;59.90;;;;;;5048843;28;20020;-58
2023/08/24 06:32:44;;;;;;;9.02;3.58;;;32.80;59.80;;;;;;5049484;28;20027;-58
2023/08/24 06:35:14;;;;;;;10.68;4.18;;;32.80;59.20;;;;;;5050508;28;20397;-59
2023/08/24 06:37:41;;;;;;;12.40;3.80;;;32.80;59.50;;;;;;5048607;28;20034;-57
2023/08/24 06:40:08;;;;;;;7.80;3.63;;;32.80;59.20;;;;;;5048151;28;20044;-58
2023/08/24 06:42:35;;;;;;;8.18;4.30;;;32.70;59.10;;;;;;5049557;28;20373;-57
2023/08/24 06:45:01;;;;;;;7.10;3.78;;;32.70;58.90;;;;;;5055882;28;20021;-52
2023/08/24 06:47:28;;;;;;;13.07;4.50;;;32.70;59.10;;;;;;5056714;28;20031;-56
2023/08/24 06:49:54;;;;;;;8.48;5.03;;;32.60;59.30;;;;;;5050720;28;20032;-56
2023/08/24 06:52:20;;;;;;;10.00;4.80;;;32.60;58.80;;;;;;5050438;28;20032;-56
2023/08/24 06:54:48;;;;;;;13.57;5.18;;;32.60;58.90;;;;;;5051211;28;20586;-57
2023/08/24 06:57:15;;;;;;;11.88;5.20;;;32.60;59.40;;;;;;5052702;28;20017;-58
2023/08/24 06:59:41;;;;;;;15.27;4.90;;;32.50;59.70;;;;;;5053188;28;20041;-58
2023/08/24 07:02:07;;;;;;;14.65;5.00;;;32.50;60.00;;;;;;5053307;28;20032;-59
2023/08/24 07:04:34;;;;;;;11.57;4.55;;;32.50;60.40;;;;;;5052602;28;20460;-59
2023/08/24 07:07:00;;;;;;;13.70;5.55;;;32.40;61.40;;;;;;5047767;28;20044;-59
2023/08/24 07:09:27;;;;;;;15.68;5.50;;;32.40;62.30;;;;;;5048958;28;20084;-54
2023/08/24 07:11:54;;;;;;;10.52;4.20;;;32.30;63.30;;;;;;5049813;28;20048;-58
2023/08/24 07:14:20;;;;;;;16.35;4.55;;;32.20;62.50;;;;;;5053854;28;20032;-58
2023/08/24 07:16:46;;;;;;;14.52;4.78;;;32.20;63.10;;;;;;5051173;28;20121;-59
2023/08/24 07:19:13;;;;;;;17.15;5.70;;;32.10;63.40;;;;;;5051119;28;20459;-57
2023/08/24 07:21:39;;;;;;;10.60;4.60;;;32.10;62.00;;;;;;5050093;28;20421;-57
2023/08/24 07:24:06;;;;;;;13.23;4.93;;;32.10;63.10;;;;;;5051709;28;20047;-58
2023/08/24 07:26:33;;;;;;;14.25;4.05;;;32.00;63.10;;;;;;5053360;28;20490;-56
2023/08/24 07:28:59;;;;;;;12.13;4.53;;;32.00;62.20;;;;;;5049696;28;20054;-57
2023/08/24 07:31:26;;;;;;;20.27;4.47;;;31.90;62.40;;;;;;5049311;28;20119;-58
2023/08/24 07:33:52;;;;;;;15.55;4.65;;;31.90;62.40;;;;;;5054797;28;20349;-57
2023/08/24 07:36:19;;;;;;;13.45;4.00;;;31.90;61.40;;;;;;5050285;28;20059;-58
2023/08/24 07:38:49;;;;;;;11.73;3.83;;;31.80;60.00;;;;;;5048995;28;20420;-57
2023/08/24 07:41:18;;;;;;;13.98;4.25;;;31.80;60.60;;;;;;5053225;28;20071;-54
2023/08/24 07:43:44;;;;;;;13.00;3.67;;;31.70;59.90;;;;;;5046310;28;21116;-57
2023/08/24 07:46:11;;;;;;;6.03;3.60;;;31.80;60.30;;;;;;5041123;28;20415;-56
2023/08/24 07:48:37;;;;;;;9.27;3.30;;;31.80;60.10;;;;;;5043283;28;20067;-57
2023/08/24 07:51:04;;;;;;;10.32;3.90;;;31.70;60.20;;;;;;5046077;28;20053;-58
2023/08/24 07:53:32;;;;;;;15.98;4.60;;;31.70;60.70;;;;;;5047019;28;20114;-56
2023/08/24 07:55:59;;;;;;;17.55;4.65;;;31.70;60.10;;;;;;5043225;28;20067;-57
2023/08/24 07:58:26;;;;;;;11.82;4.20;;;31.60;59.40;;;;;;5043795;28;20010;-55
2023/08/24 08:00:53;;;;;;;15.20;4.25;;;31.60;60.20;;;;;;5047551;28;20089;-56
2023/08/24 08:03:20;;;;;;;14.20;4.15;;;31.50;60.80;;;;;;5050843;28;20132;-57
2023/08/24 08:05:47;;;;;;;11.05;3.95;;;31.50;60.40;;;;;;5047386;28;20419;-60
2023/08/24 08:08:14;;;;;;;10.38;3.40;;;31.50;60.50;;;;;;5051240;28;20381;-56
2023/08/24 08:10:41;;;;;;;17.15;4.03;;;31.50;60.80;;;;;;5048202;28;20508;-56
2023/08/24 08:13:08;;;;;;;11.55;4.07;;;31.50;60.10;;;;;;5047408;28;20054;-55
2023/08/24 08:15:36;;;;;;;7.65;3.67;;;31.40;60.40;;;;;;5046839;28;20596;-55
2023/08/24 08:18:02;;;;;;;15.57;4.18;;;31.40;60.00;;;;;;5049912;28;20044;-57
2023/08/24 08:20:29;;;;;;;10.80;4.10;;;31.40;60.50;;;;;;5046904;28;20015;-54
2023/08/24 08:22:55;;;;;;;14.50;3.83;;;31.40;61.00;;;;;;5048034;28;20040;-55
2023/08/24 08:25:22;;;;;;;16.05;3.95;;;31.40;62.70;;;;;;5050997;28;20541;-55
2023/08/24 08:27:49;;;;;;;10.70;4.00;;;31.30;61.80;;;;;;5049293;28;20511;-56
2023/08/24 08:30:16;;;;;;;12.43;4.07;;;31.30;61.30;;;;;;5047436;28;21449;-61
2023/08/24 08:32:42;;;;;;;13.73;4.82;;;31.20;61.90;;;;;;5049326;28;20060;-57
2023/08/24 08:35:09;;;;;;;18.23;4.80;;;31.20;63.20;;;;;;5050046;28;20051;-55
2023/08/24 08:37:36;;;;;;;22.92;5.78;;;31.20;63.10;;;;;;5048230;28;20038;-58
2023/08/24 08:40:07;;;;;;;13.35;5.13;;;31.10;62.50;;;;;;5048586;28;20043;-58
2023/08/24 08:42:35;;;;;;;19.02;6.28;;;31.00;62.60;;;;;;5047312;28;20213;-56
2023/08/24 08:45:04;;;;;;;17.40;6.68;;;31.00;62.90;;;;;;5048468;28;20063;-56
2023/08/24 08:47:31;;;;;;;18.85;5.95;;;31.00;62.60;;;;;;5050902;28;20434;-60
2023/08/24 08:49:58;;;;;;;18.17;5.85;;;31.00;63.00;;;;;;5045580;28;20102;-56
2023/08/24 08:52:25;;;;;;;14.57;6.03;;;31.00;63.40;;;;;;5046162;28;20539;-58
2023/08/24 08:54:52;;;;;;;14.38;5.90;;;30.90;63.40;;;;;;5050295;28;20046;-58
2023/08/24 08:57:21;;;;;;;17.73;6.95;;;30.90;64.50;;;;;;5048560;28;20087;-56
2023/08/24 08:59:50;;;;;;;18.50;8.30;;;30.90;63.60;;;;;;5046799;28;20116;-55
2023/08/24 09:02:19;;;;;;;14.75;7.60;;;30.90;62.40;;;;;;5051386;28;20066;-54
2023/08/24 09:04:47;;;;;;;15.45;7.53;;;30.90;62.70;;;;;;5047557;28;20047;-54
2023/08/24 09:07:14;;;;;;;17.88;7.70;;;30.90;63.30;;;;;;5048370;28;20048;-58
2023/08/24 09:09:41;;;;;;;17.73;7.65;;;30.80;64.00;;;;;;5048671;28;20405;-55
2023/08/24 09:12:08;;;;;;;16.13;6.97;;;30.80;63.70;;;;;;5049748;28;20039;-53
2023/08/24 09:14:34;;;;;;;12.88;6.18;;;30.70;62.70;;;;;;5048252;28;20050;-55
2023/08/24 09:17:01;;;;;;;13.88;6.22;;;30.70;62.30;;;;;;5047344;28;20143;-55
2023/08/24 09:19:31;;;;;;;11.65;5.07;;;30.70;62.80;;;;;;5046339;28;20466;-60
2023/08/24 09:21:59;;;;;;;15.13;5.20;;;30.70;62.90;;;;;;5046006;28;20052;-56
2023/08/24 09:24:35;;;;;;;9.23;4.57;;;30.70;63.50;;;;;;5045479;28;20504;-59
2023/08/24 09:27:19;;;;;;;13.10;4.43;;;30.70;63.10;;;;;;5047857;28;20059;-57
2023/08/24 09:29:53;;;;;;;17.60;4.35;;;30.70;63.10;;;;;;5043989;28;20426;-55
2023/08/24 09:32:29;;;;;;;15.00;4.65;;;30.60;63.10;;;;;;5051375;28;20058;-57
2023/08/24 09:34:56;;;;;;;13.95;4.50;;;30.60;63.30;;;;;;5046816;28;20054;-56
2023/08/24 09:37:22;;;;;;;9.82;3.83;;;30.50;63.50;;;;;;5047189;28;20048;-56
2023/08/24 09:39:49;;;;;;;9.63;4.00;;;30.50;63.40;;;;;;5048569;28;20063;-55
2023/08/24 09:42:24;;;;;;;15.65;4.43;;;30.50;63.40;;;;;;5047128;28;20089;-55
2023/08/24 09:44:50;;;;;;;10.40;3.58;;;30.50;62.60;;;;;;5048147;28;20576;-58
2023/08/24 09:47:17;;;;;;;12.10;3.85;;;30.50;61.80;;;;;;5046681;28;20047;-58
2023/08/24 09:49:43;;;;;;;14.93;3.75;;;30.50;62.30;;;;;;5046418;28;20068;-58
2023/08/24 09:52:10;;;;;;;15.73;4.80;;;30.40;61.90;;;;;;5046605;28;20042;-57
2023/08/24 09:54:38;;;;;;;18.40;5.32;;;30.50;62.90;;;;;;5045344;28;20131;-58
2023/08/24 09:57:09;;;;;;;13.10;4.88;;;30.50;65.80;;;;;;5050225;28;20060;-56
2023/08/24 09:59:42;;;;;;;16.52;5.18;;;30.50;64.30;;;;;;5051208;28;20052;-57
2023/08/24 10:02:21;;;;;;;16.92;5.35;;;30.50;64.10;;;;;;5046362;28;20064;-58
2023/08/24 10:04:52;;;;;;;19.30;6.10;;;30.50;64.10;;;;;;5047564;28;20056;-57
2023/08/24 10:07:22;;;;;;;22.75;4.95;;;30.50;64.20;;;;;;5048102;28;20048;-56
2023/08/24 10:09:58;;;;;;;12.38;5.03;;;30.50;65.50;;;;;;5050220;28;20053;-57
2023/08/24 10:12:28;;;;;;;15.43;4.57;;;30.50;65.30;;;;;;5048141;28;20534;-56
2023/08/24 10:15:03;;;;;;;13.88;4.75;;;30.50;65.70;;;;;;5051799;28;20413;-57
2023/08/24 10:17:36;;;;;;;14.68;4.60;;;30.40;65.50;;;;;;5051819;28;20057;-55
2023/08/24 10:20:06;;;;;;;16.13;4.45;;;30.50;67.60;;;;;;5050785;28;20598;-58
2023/08/24 10:22:35;;;;;;;11.13;4.50;;;30.40;67.40;;;;;;5049889;28;20557;-56
2023/08/24 10:25:05;;;;;;;13.20;4.43;;;30.30;67.80;;;;;;5055049;28;20051;-56
2023/08/24 10:27:32;;;;;;;15.38;3.72;;;30.30;69.30;;;;;;5054283;28;20466;-58
2023/08/24 10:29:59;;;;;;;9.77;3.92;;;30.30;73.60;;;;;;5053329;28;20045;-59
2023/08/24 10:32:26;;;;;;;11.77;4.60;;;30.30;75.10;;;;;;5052827;28;20152;-55
2023/08/24 10:34:53;;;;;;;14.75;4.38;;;30.30;76.80;;;;;;5050406;28;20135;-55
2023/08/24 10:37:26;;;;;;;12.90;5.55;;;30.20;78.30;;;;;;5051214;28;20141;-57
2023/08/24 10:39:53;;;;;;;13.98;5.25;;;30.20;79.70;;;;;;5052738;28;20397;-57
2023/08/24 10:42:21;;;;;;;11.20;4.60;;;30.20;80.80;;;;;;5052245;28;20055;-56
2023/08/24 10:44:49;;;;;;;12.50;4.50;;;30.20;81.50;;;;;;5050431;28;20100;-55
2023/08/24 10:47:18;;;;;;;12.73;3.42;;;30.20;82.40;;;;;;5049241;28;20046;-56
2023/08/24 10:49:57;;;;;;;6.25;3.15;;;30.20;83.10;;;;;;5048691;28;20079;-58
2023/08/24 10:52:30;;;;;;;8.95;3.20;;;30.20;84.30;;;;;;5047060;28;20124;-56
2023/08/24 10:54:57;;;;;;;6.32;2.83;;;30.20;85.40;;;;;;5049505;28;20047;-56
2023/08/24 10:57:34;;;;;;;5.15;2.42;;;30.10;86.00;;;;;;5051198;28;20054;-55
2023/08/24 11:00:13;;;;;;;8.98;3.65;;;30.20;86.80;;;;;;5053020;28;20043;-56
2023/08/24 11:02:49;;;;;;;9.07;3.05;;;30.10;87.80;;;;;;5050622;28;20061;-57
2023/08/24 11:05:27;;;;;;;9.90;3.00;;;30.10;89.00;;;;;;5050195;28;20047;-56
2023/08/24 11:08:00;;;;;;;14.57;3.63;;;30.00;89.90;;;;;;5051172;28;20082;-56
2023/08/24 11:10:48;;;;;;;5.85;3.10;;;30.00;90.20;;;;;;5052722;28;20068;-56
2023/08/24 11:13:19;;;;;;;8.20;3.55;;;30.00;90.50;;;;;;5052243;28;20390;-56
2023/08/24 11:15:46;;;;;;;9.75;4.35;;;30.00;90.80;;;;;;5050834;28;20080;-58
2023/08/24 11:18:23;;;;;;;12.45;4.22;;;30.00;91.30;;;;;;5054671;28;20046;-58
2023/08/24 11:20:53;;;;;;;12.35;4.32;;;29.90;91.50;;;;;;5051849;28;20152;-57
2023/08/24 11:23:21;;;;;;;15.45;4.47;;;29.90;91.80;;;;;;5049241;28;20058;-55
2023/08/24 11:25:57;;;;;;;12.95;4.28;;;29.90;92.20;;;;;;5050146;28;20525;-57
2023/08/24 11:28:25;;;;;;;14.50;4.53;;;29.90;92.60;;;;;;5047980;28;20576;-56
2023/08/24 11:30:52;;;;;;;15.30;4.43;;;29.90;93.10;;;;;;5051411;28;20054;-58
2023/08/24 11:33:34;;;;;;;13.30;4.85;;;29.90;93.60;;;;;;5053637;28;20466;-54
2023/08/24 11:36:04;;;;;;;22.67;5.65;;;29.80;94.20;;;;;;5050937;28;20570;-58
2023/08/24 11:38:40;;;;;;;22.85;5.55;;;29.80;94.60;;;;;;5049411;28;20056;-56
2023/08/24 11:41:17;;;;;;;24.30;6.18;;;29.70;95.00;;;;;;5049606;28;20129;-58
2023/08/24 11:43:44;;;;;;;26.98;6.60;;;29.70;95.50;;;;;;5050724;28;20079;-57
2023/08/24 11:46:12;;;;;;;20.95;6.75;;;29.70;95.70;;;;;;5051429;28;20452;-55
2023/08/24 11:48:39;;;;;;;31.25;7.60;;;29.70;96.20;;;;;;5051905;28;20426;-57
2023/08/24 11:51:10;;;;;;;27.25;7.47;;;29.70;96.10;;;;;;5048531;28;20064;-56
2023/08/24 11:53:38;;;;;;;20.75;6.65;;;29.60;96.50;;;;;;5048538;28;20185;-59
2023/08/24 11:56:05;;;;;;;22.25;7.53;;;29.50;96.70;;;;;;5048633;28;20078;-58
2023/08/24 11:58:32;;;;;;;19.27;6.97;;;29.60;97.10;;;;;;5051387;28;20531;-56
2023/08/24 12:00:59;;;;;;;22.13;7.28;;;29.50;97.20;;;;;;5051317;28;20073;-57
2023/08/24 12:03:25;;;;;;;25.05;7.22;;;29.50;97.50;;;;;;5051121;28;20502;-57
2023/08/24 12:05:52;;;;;;;33.92;7.75;;;29.50;97.60;;;;;;5049066;28;20145;-54
2023/08/24 12:08:18;;;;;;;24.13;8.10;;;29.40;97.80;;;;;;5052420;28;20058;-58
2023/08/24 12:10:44;;;;;;;27.35;8.35;;;29.40;98.10;;;;;;5048743;28;20065;-57
2023/08/24 12:13:12;;;;;;;26.17;8.60;;;29.30;98.40;;;;;;5050342;28;20062;-55
2023/08/24 12:15:40;;;;;;;29.10;9.60;;;29.20;98.60;;;;;;5047802;28;20077;-56
2023/08/24 12:18:15;;;;;;;40.35;9.35;;;29.30;98.70;;;;;;5047584;28;20044;-58
2023/08/24 12:20:42;;;;;;;29.95;8.73;;;29.20;98.90;;;;;;5046010;28;20072;-57
2023/08/24 12:23:10;;;;;;;39.00;9.27;;;29.20;99.20;;;;;;5053871;28;20080;-57
2023/08/24 12:25:43;;;;;;;31.63;9.18;;;29.10;99.40;;;;;;5053566;28;20053;-56
2023/08/24 12:28:15;;;;;;;41.00;9.20;;;29.10;99.60;;;;;;5051630;28;20065;-57
2023/08/24 12:30:50;;;;;;;28.20;8.77;;;29.10;99.90;;;;;;5048850;28;20069;-58
2023/08/24 12:33:27;;;;;;;36.58;9.68;;;29.10;99.90;;;;;;5049017;28;20076;-56
2023/08/24 12:35:55;;;;;;;27.17;8.82;;;29.00;99.90;;;;;;5048644;28;20078;-57
2023/08/24 12:38:23;;;;;;;27.58;7.50;;;29.10;99.90;;;;;;5051439;28;20472;-55
2023/08/24 12:40:50;;;;;;;42.95;9.38;;;29.00;99.90;;;;;;5047016;28;20530;-56
2023/08/24 12:43:16;;;;;;;30.95;8.27;;;29.00;99.90;;;;;;5048683;28;20083;-57
2023/08/24 12:45:43;;;;;;;29.50;7.90;;;29.00;99.90;;;;;;5048164;28;20056;-58